Home > Products > Valid Products > TAF

000
FTUS43 KMPX 011700
TAFRWF
TAF
KRWF 011721Z 0118/0218 30010KT P6SM SCT050
     FM020000 25006KT P6SM SCT050 BKN090
     FM021500 26010KT P6SM FEW110=



000
FTUS43 KMPX 011700
TAFSTC
TAF
KSTC 011721Z 0118/0218 30010G16KT P6SM FEW110
     FM020000 26004KT P6SM SCT050 BKN090
     FM021600 26010KT P6SM FEW250=



000
FTUS43 KMPX 011700
TAFMSP
TAF
KMSP 011721Z 0118/0224 30010G16KT P6SM SCT040 SCT110
     FM020000 25006KT P6SM SCT050 BKN090
     FM021700 25010KT P6SM FEW040=



000
FTUS43 KMPX 011700
TAFAXN
TAF
KAXN 011721Z 0118/0218 30010KT P6SM FEW050
     FM020000 28005KT P6SM SCT050 BKN090
     FM021500 25010KT P6SM FEW250=



000
FTUS43 KMPX 011700
TAFEAU
TAF
KEAU 011721Z 0118/0218 29010G16KT P6SM SCT040 BKN110
     FM020100 27005KT P6SM SCT050 BKN090=



000
FTUS43 KMPX 011400 AAB
TAFMSP
TAF AMD
KMSP 011447Z 0115/0218 30007KT P6SM SCT020 BKN025 BKN110
     FM011530 30010G16KT P6SM SCT025 BKN110
     FM011800 30012G18KT P6SM SCT050
     FM020100 29007KT P6SM SCT050 BKN090
     FM020900 26005KT P6SM SCT100=



000
FTUS43 KMPX 011300 AAA
TAFMSP
TAF AMD
KMSP 011340Z 0114/0218 30005KT P6SM BKN015 BKN110
     FM011430 30007KT P6SM BKN018 BKN110
     FM011530 30010G16KT P6SM SCT020 BKN110
     FM011800 30012G18KT P6SM SCT050
     FM020100 29007KT P6SM SCT050 BKN090
     FM020900 26005KT P6SM SCT100=



000
FTUS43 KMPX 011200 AAA
TAFEAU
TAF AMD
KEAU 011255Z 0113/0212 18006KT P6SM -SHRA VCTS BKN008CB OVC019
      TEMPO 0113/0114 3SM SHRA BKN012
     FM011430 26006KT P6SM BKN015 BKN050
     FM011530 28008KT P6SM BKN025
     FM011700 29011KT P6SM SCT020 BKN050
     FM020000 27006KT P6SM SCT200
     FM020500 25003KT P6SM BKN100=



000
FTUS43 KMPX 011100
TAFAXN
TAF
KAXN 011132Z 0112/0212 29007KT P6SM BKN100
     FM011500 30012KT P6SM SCT200
     FM012200 28008KT P6SM SCT040 BKN070
     FM020700 27005KT P6SM SKC=



000
FTUS43 KMPX 011100
TAFEAU
TAF
KEAU 011132Z 0112/0212 22006KT 6SM -SHRA SCT010 BKN050
      TEMPO 0112/0115 3SM -SHRA BKN010
     FM011500 25006KT P6SM VCSH BKN020
     FM011700 29011KT P6SM SCT020 BKN050
     FM020000 27006KT P6SM SCT200
     FM020500 25003KT P6SM BKN100=



000
FTUS43 KMPX 011100
TAFRWF
TAF
KRWF 011132Z 0112/0212 33006KT P6SM FEW010 BKN070
     FM011600 31010KT P6SM SCT050
     FM012300 28007KT P6SM BKN100=



000
FTUS43 KMPX 011100
TAFSTC
TAF
KSTC 011132Z 0112/0212 26007KT P6SM VCSH SCT010 BKN100
     FM011400 30009KT P6SM BKN120
     FM011700 30011G19KT P6SM SCT100
     FM020000 28005KT P6SM SCT050 BKN080
     FM020800 28003KT P6SM SKC=



000
FTUS43 KMPX 011100
TAFMSP
TAF
KMSP 011132Z 0112/0218 25006KT P6SM VCSH SCT008 BKN050
      TEMPO 0112/0114 6SM -SHRA BKN008
     FM011400 30010KT P6SM SCT020 BKN080
     FM011800 30012G19KT P6SM SCT050
     FM020100 29007KT P6SM SCT050 BKN090
     FM020900 26005KT P6SM SCT100=



000
FTUS43 KMPX 010900 AAB
TAFMSP
TAF AMD
KMSP 010926Z 0109/0212 23003KT 6SM BR VCSH SCT008 OVC015
      TEMPO 0110/0113 4SM -SHRA BKN008
     FM011500 30012G20KT P6SM SCT040
     FM020100 27007KT P6SM SCT050 BKN090=



000
FTUS43 KMPX 010800 AAA
TAFEAU
TAF AMD
KEAU 010852Z 0109/0206 22006KT 6SM -SHRA SCT010 BKN050
      TEMPO 0109/0113 3SM -SHRA BKN010
     FM011300 25006KT P6SM VCSH BKN020
     FM011600 29011KT P6SM SCT020 BKN050
     FM020000 27006KT P6SM SCT200=



000
FTUS43 KMPX 010800 AAA
TAFMSP
TAF AMD
KMSP 010850Z 0109/0212 21003KT 6SM -SHRA BR SCT025 OVC100
     FM011000 27008KT 6SM BR VCSH SCT008 OVC070
      TEMPO 0110/0113 4SM -SHRA BKN008
     FM011600 30012G20KT P6SM SCT040
     FM020100 27007KT P6SM SCT050 BKN090=



000
FTUS43 KMPX 010800 AAA
TAFSTC
TAF AMD
KSTC 010849Z 0109/0206 21004KT 6SM -SHRA SCT006 BKN050
      TEMPO 0109/0111 3SM -SHRA BKN006
     FM011100 26005KT P6SM SCT010 BKN150
     FM011400 31012KT P6SM SCT040
     FM020000 28005KT P6SM SCT050 BKN080=



000
FTUS43 KMPX 010700 AAA
TAFRWF
TAF AMD
KRWF 010759Z 0108/0206 30007KT P6SM VCSH SCT007 BKN100
      TEMPO 0108/0111 3SM -SHRA BKN007
     FM011100 30005KT 6SM BR SCT004 BKN006
     FM011400 31010KT P6SM SCT050
     FM012300 28007KT P6SM BKN100=



000
FTUS43 KMPX 010500
TAFAXN
TAF
KAXN 010520Z 0106/0206 27004KT P6SM SCT020 BKN100
     FM011500 30012KT P6SM SCT200
     FM012200 28008KT P6SM SCT040 BKN090=



000
FTUS43 KMPX 010500
TAFMSP
TAF
KMSP 010520Z 0106/0212 21003KT 6SM -SHRA BR SCT025 OVC100
     FM011000 30008KT 5SM BR VCSH SCT008 OVC015
     FM011600 30012G20KT P6SM SCT040
     FM020100 27007KT P6SM SCT050 BKN090=



000
FTUS43 KMPX 010500
TAFEAU
TAF
KEAU 010520Z 0106/0206 VRB03KT 4SM -SHRA SCT020 BKN050
     FM010900 VRB03KT 4SM -SHRA BR SCT005 OVC012
     FM011300 27006KT 6SM BR BKN020
     FM011600 29011KT P6SM SCT020 BKN050
     FM020000 27006KT P6SM SCT200=



000
FTUS43 KMPX 010500
TAFRWF
TAF
KRWF 010520Z 0106/0206 VRB03KT P6SM SCT007 BKN100
      TEMPO 0106/0109 BKN007
     FM010900 30005KT 4SM BR SCT004 BKN006
     FM011300 31010KT P6SM SCT050
     FM012300 28007KT P6SM BKN100=



000
FTUS43 KMPX 010500
TAFSTC
TAF
KSTC 010520Z 0106/0206 21004KT 6SM -SHRA SCT030 BKN120
     FM010900 26005KT 4SM BR SCT010 BKN150
     FM011400 31012KT P6SM SCT040
     FM020000 28005KT P6SM SCT050 BKN080=



000
FTUS43 KMPX 010300 AAA
TAFMSP
TAF AMD
KMSP 010321Z 0103/0206 19008KT 6SM -SHRA VCTS SCT020 BKN070CB
     FM010600 21006KT 6SM -SHRA BR SCT015 OVC025
     FM011000 30008KT 5SM BR OVC015
     FM011600 30012KT P6SM SCT040 BKN250=



000
FTUS43 KMPX 010200 AAA
TAFEAU
TAF AMD
KEAU 010210Z 0102/0124 18014KT P6SM VCTS SCT030CB BKN070
      TEMPO 0103/0107 3SM TSRA OVC025CB
     FM010800 19007KT 6SM -SHRA SCT020 BKN050
     FM011000 24005KT 4SM -RA BR OVC012
     FM011500 28009KT 6SM BR BKN020
     FM011800 29011KT P6SM BKN040=



000
FTUS43 KMPX 010200 AAA
TAFRWF
TAF AMD
KRWF 010205Z 0102/0124 VRB03KT 6SM -SHRA SCT040 BKN120
     FM010600 28004KT P6SM BKN150
     FM010900 30005KT 4SM BR FEW015 BKN150
     FM011300 31010KT P6SM SCT050=



000
FTUS43 KMPX 010200 AAA
TAFSTC
TAF AMD
KSTC 010202Z 0102/0124 19010KT P6SM -SHRA SCT035 BKN100
     FM010400 21006KT P6SM SCT030 BKN120
     FM010800 26005KT 4SM BR SCT010 BKN150
     FM011400 31012KT P6SM SCT040=



000
FTUS43 KMPX 010200 AAA
TAFSTC
TAF AMD
KSTC 010202Z 0102/0124 19010KT P6SM -SHRA SCT035 BKN100
     FM010400 21006KT P6SM SCT030 BKN120
     FM010800 26005KT 4SM BR SCT010 BKN150
     FM011400 31012KT P6SM SCT040=



000
FTUS43 KMPX 010100 AAA
TAFAXN
TAF AMD
KAXN 010156Z 0102/0124 VRB03KT P6SM BKN110
     FM010800 31005KT P6SM BKN150
     FM011300 30010KT P6SM SCT200
     FM011800 30013KT P6SM SCT040 BKN090=



000
FTUS43 KMPX 312300 RRA
TAFAXN
TAF
KAXN 312340Z 0100/0124 28013G20KT P6SM SCT040 BKN120
     FM010200 28007KT P6SM SCT015 BKN150
     FM010800 30005KT 5SM BR BKN015
     FM011300 30010KT P6SM SCT020
     FM011800 30013KT P6SM BKN050=



000
FTUS43 KMPX 312300 RRA
TAFEAU
TAF
KEAU 312340Z 0100/0124 17011G18KT P6SM SCT050 BKN090
     FM010300 18010KT P6SM VCTS SCT025CB BKN050
      TEMPO 0103/0107 3SM TSRA OVC025CB
     FM010800 19007KT 6SM -SHRA SCT020 BKN050
     FM011000 24005KT 2SM -RA BR OVC012
     FM011500 28009KT 6SM BR BKN020
     FM011800 29011KT P6SM BKN040=



000
FTUS43 KMPX 312300 RRA
TAFMSP
TAF
KMSP 312340Z 0100/0206 18015G22KT P6SM SCT045 BKN110
      TEMPO 0101/0102 -SHRA BKN045 OVC100
     FM010200 19008KT P6SM VCTS SCT020 BKN070CB
      TEMPO 0102/0106 3SM TSRA OVC020CB
     FM010600 21006KT 6SM -SHRA BR SCT015 OVC025
     FM011000 30008KT 5SM BR OVC015
     FM011600 30012KT P6SM SCT040 BKN250=



000
FTUS43 KMPX 312300 RRA
TAFRWF
TAF
KRWF 312340Z 0100/0124 21008KT 5SM -TSRA SCT040 BKN070CB
      TEMPO 0100/0101 2SM TSRA OVC035CB
     FM010100 24006KT 6SM -SHRA SCT035 BKN060
     FM010300 28011KT P6SM BKN070
     FM010600 30004KT 4SM BR SCT015
      TEMPO 0109/0113 2SM BR BKN012
     FM011600 32011KT P6SM SCT050=



000
FTUS43 KMPX 312300 RRA
TAFSTC
TAF
KSTC 312340Z 0100/0124 19010KT 5SM -TSRA SCT035CB BKN070
      TEMPO 0100/0101 2SM TSRA OVC035CB
     FM010300 21006KT P6SM SCT020 BKN090
     FM010600 26005KT 5SM BR SCT010 BKN150
     FM011200 30008KT 5SM BR BKN015
     FM011600 31012KT P6SM BKN040=



000
FTUS43 KMPX 312000 AAB
TAFMSP
TAF AMD
KMSP 312056Z 3121/0124 18015G22KT P6SM VCSH SCT045 BKN110
      TEMPO 3121/3124 -SHRA BKN045 OVC100
     FM010400 20008KT P6SM VCTS SCT020 BKN080CB
      TEMPO 0104/0106 4SM TSRA OVC020CB
     FM010600 24006KT 6SM -SHRA BR BKN035
     FM011100 30008KT 5SM BR SCT015
     FM011600 30010KT P6SM BKN025=



000
FTUS43 KMPX 311900 CCA
TAFMSP
TAF COR
KMSP 311915Z 3119/0124 16015G24KT P6SM SCT035 SCT110
     FM312200 19014G22KT P6SM VCTS SCT040CB BKN080
      TEMPO 0102/0104 1SM TSRA BKN020CB OVC050
     FM010400 19008KT P6SM VCSH SCT020 BKN080
     FM010600 24006KT 6SM -SHRA BR BKN035
     FM011100 30008KT 5SM BR SCT015
     FM011600 30010KT P6SM BKN025=



000
FTUS43 KMPX 311900 AAA
TAFMSP
TAF AMD
KMSP 311912Z 3119/0124 16015G24KT P6SM SCT035 SCT110
     FM312000 18014G22KT P6SM VCSH SCT040 BKN080
      TEMPO 0102/0104 1SM TSRA BKN020CB OVC050
     FM010400 19008KT P6SM VCSH SCT020 BKN080
     FM010600 24006KT 6SM -SHRA BR BKN035
     FM011100 30008KT 5SM BR SCT015
     FM011600 30010KT P6SM BKN025=



000
FTUS43 KMPX 311700 CCA
TAFSTC
TAF COR
KSTC 311740Z 3118/0118 17015G22KT P6SM VCTS SCT035CB BKN050
      TEMPO 3118/3119 3SM TSRA BKN035CB
     FM312100 19015G22KT P6SM VCSH BKN050
     FM312300 19010KT P6SM VCTS SCT035CB BKN070
     FM010300 21006KT P6SM SCT020 BKN090
     FM010600 26005KT 5SM BR SCT010 BKN150
     FM011200 30008KT 5SM BR BKN015=



000
FTUS43 KMPX 311700
TAFRWF
TAF
KRWF 311723Z 3118/0118 20015G22KT P6SM VCTS SCT035CB BKN110
     FM312100 22012KT P6SM SCT050 BKN080
     FM312300 24008KT P6SM VCTS SCT040 BKN070CB
     FM010300 28006KT P6SM VCSH SCT050 BKN100
     FM010600 30004KT 4SM BR SCT015=



000
FTUS43 KMPX 311700
TAFMSP
TAF
KMSP 311723Z 3118/0124 16015G24KT P6SM SCT035 SCT110
     FM312000 18014G22KT P6SM VCTS SCT040CB BKN080
      TEMPO 0101/0104 1SM TSRA BKN020CB OVC050
     FM010400 19008KT P6SM VCSH SCT020 BKN080
     FM010600 24006KT 6SM -SHRA BR BKN035
     FM011100 30008KT 5SM BR SCT015
     FM011600 30010KT P6SM BKN025=



000
FTUS43 KMPX 311700
TAFAXN
TAF
KAXN 311723Z 3118/0118 20016G22KT P6SM SCT025 BKN050
     FM312200 23014KT P6SM SCT040 BKN120
     FM010100 28007KT P6SM SCT015 BKN150
     FM010900 30006KT 5SM BR BKN015
     FM011300 30010KT P6SM SCT020=



000
FTUS43 KMPX 311700
TAFEAU
TAF
KEAU 311723Z 3118/0118 16014G22KT P6SM SCT010 BKN080
     FM312200 18014G22KT P6SM VCTS SCT030CB BKN070
      TEMPO 3123/0103 1SM TSRA BKN015CB
     FM010300 18010KT P6SM VCTS SCT030CB BKN050
     FM010800 19007KT 6SM SHRA VCTS SCT020CB BKN050
     FM011200 24005KT 2SM -SHRA BR BKN006
     FM011600 28009KT 6SM BR BKN012=



000
FTUS43 KMPX 311700
TAFSTC
TAF
KSTC 311723Z 3118/0118 17015G22KT P6SM VCTS SCT035CB BKN050
     FM312100 19015G22KT P6SM VCSH BKN050
     FM312300 19010KT P6SM VCTS SCT035CB BKN070
     FM010300 21006KT P6SM SCT020 BKN090
     FM010600 26005KT 5SM BR SCT010 BKN150
     FM011200 30008KT 5SM BR BKN015=



000
FTUS43 KMPX 311500 AAA
TAFSTC
TAF AMD
KSTC 311549Z 3116/0112 14014G24KT P6SM SCT020 BKN035
     FM312000 19015G22KT P6SM VCSH BKN050
     FM312300 18010KT P6SM VCTS SCT030CB BKN070
     FM010300 23008KT P6SM SCT020 BKN090
     FM010900 30005KT 6SM BR SCT010 BKN150=



000
FTUS43 KMPX 311400 AAB
TAFEAU
TAF AMD
KEAU 311450Z 3115/0112 14007KT P6SM BKN006 BKN012
     FM311600 16012G20KT P6SM BKN012
     FM311630 16012G22KT P6SM SCT020 BKN110
     FM312200 18014G22KT P6SM VCTS SCT030CB BKN070
      TEMPO 3123/0103 1SM TSRA BKN015CB
     FM010300 18010KT P6SM VCTS SCT030CB BKN050
     FM010800 21007KT P6SM VCSH SCT020 BKN050=



000
FTUS43 KMPX 311400 AAA
TAFMSP
TAF AMD
KMSP 311449Z 3115/0118 13014G22KT P6SM SCT012 BKN110
     FM311600 16015G22KT P6SM SCT050
     FM312000 17014G22KT P6SM VCTS SCT040CB BKN060
      TEMPO 0101/0104 1SM TSRA BKN020CB OVC050
     FM010400 19008KT P6SM VCSH SCT020 BKN080
     FM010700 25006KT P6SM BKN100
     FM011400 30007KT P6SM SCT100=



000
FTUS43 KMPX 311300 AAA
TAFEAU
TAF AMD
KEAU 311315Z 3113/0112 14007KT P6SM BKN006 BKN012
      TEMPO 3115/3116 BKN012
     FM311600 16012G20KT P6SM SCT012 SCT200
     FM312200 18014G22KT P6SM VCTS SCT030CB BKN070
      TEMPO 3123/0103 1SM TSRA BKN015CB
     FM010300 18010KT P6SM VCTS SCT030CB BKN050
     FM010800 21007KT P6SM VCSH SCT020 BKN050=



000
FTUS43 KMPX 311100
TAFAXN
TAF
KAXN 311130Z 3112/0112 15012KT P6SM VCSH BKN006 OVC050
     FM311300 15013KT P6SM SCT010 BKN100
     FM311700 18016G23KT P6SM SCT020 BKN150
     FM312200 23009KT P6SM SCT040 BKN120
     FM010400 30005KT P6SM SCT015 BKN150=



000
FTUS43 KMPX 311100
TAFMSP
TAF
KMSP 311130Z 3112/0118 13009KT 5SM BR OVC004
     FM311400 14011KT P6SM VCSH SCT007 BKN090
     FM311600 16015G22KT P6SM SCT090
     FM312100 17014G22KT P6SM VCTS SCT040CB BKN070
      TEMPO 0101/0104 1SM TSRA BKN020CB OVC050
     FM010400 19008KT P6SM VCSH SCT020 BKN080
     FM010700 25006KT P6SM BKN100
     FM011400 30007KT P6SM SCT100=



000
FTUS43 KMPX 311100
TAFRWF
TAF
KRWF 311130Z 3112/0112 14010KT P6SM VCSH SCT050 BKN090
     FM311300 16012KT P6SM SCT050 BKN150
     FM311600 17017G24KT P6SM SCT050
     FM312100 20010KT P6SM SCT050 BKN080
     FM010000 23009KT P6SM VCTS SCT040 BKN070CB
     FM010400 28006KT P6SM SCT050 BKN100=



000
FTUS43 KMPX 311100
TAFSTC
TAF
KSTC 311130Z 3112/0112 13007KT P6SM VCSH SCT004 BKN080
      TEMPO 3112/3114 5SM BR OVC004
     FM311400 15012KT P6SM SCT015 BKN120
     FM311600 17014G21KT P6SM SCT040 BKN150
     FM312300 18010KT P6SM VCTS SCT030CB BKN070
     FM010300 23008KT P6SM SCT020 BKN090
     FM010900 30005KT 6SM BR SCT010 BKN150=



000
FTUS43 KMPX 311100
TAFEAU
TAF
KEAU 311130Z 3112/0112 06004KT 6SM BR SCT002
      TEMPO 3112/3113 1SM BR BKN002
     FM311300 14008KT P6SM SCT015
     FM311500 16014G21KT P6SM SCT200
     FM312200 18009KT P6SM VCTS SCT030CB BKN070
      TEMPO 3123/0102 1SM TSRA BKN015CB
     FM010800 21007KT P6SM VCSH SCT020 BKN050=



000
FTUS43 KMPX 311000 AAA
TAFSTC
TAF AMD
KSTC 311035Z 3111/0106 13007KT P6SM VCSH SCT004 BKN080
      TEMPO 3111/3114 5SM BR OVC004
     FM311400 15009KT P6SM SCT050 BKN120
     FM311600 15014G21KT P6SM SCT150
     FM312100 17013G20KT P6SM VCTS SCT030CB BKN070
      TEMPO 3122/0102 2SM TSRA BKN020CB OVC050
     FM010300 22008KT P6SM SCT020 BKN090=



000
FTUS43 KMPX 311000 AAC
TAFMSP
TAF AMD
KMSP 311032Z 3111/0112 13009KT 5SM BR OVC004
     FM311400 14011KT P6SM VCSH SCT007 BKN090
     FM311600 16015G22KT P6SM SCT090
     FM312100 17014G22KT P6SM VCTS SCT040CB BKN070
      TEMPO 0101/0104 1SM TSRA BKN020CB OVC050
     FM010400 19008KT P6SM VCSH SCT020 BKN080
     FM010900 25006KT P6SM SCT100=



000
FTUS43 KMPX 310900 AAB
TAFMSP
TAF AMD
KMSP 310928Z 3109/0112 12006KT P6SM FEW050
     FM311100 13009KT P6SM VCSH FEW007 BKN090
      TEMPO 3111/3114 6SM BR OVC007
     FM311600 16015G22KT P6SM SCT090
     FM312100 17014G22KT P6SM VCTS SCT040CB BKN070
      TEMPO 0101/0104 1SM TSRA BKN020CB OVC050
     FM010400 19008KT P6SM VCSH SCT020 BKN080
     FM010900 25006KT P6SM SCT100=



000
FTUS43 KMPX 310900 AAA
TAFAXN
TAF AMD
KAXN 310905Z 3109/0106 14007KT 6SM BR BKN004
     FM311000 15012KT P6SM VCSH SCT006 BKN050
      TEMPO 3110/3112 3SM -TSRA BKN006CB
     FM311300 15014G20KT P6SM SCT015 BKN100
     FM311700 18014G21KT P6SM SCT020 BKN050
     FM312200 24009KT P6SM SCT040 BKN120
     FM010400 29005KT P6SM SCT200=



000
FTUS43 KMPX 310900 AAA
TAFEAU
TAF AMD
KEAU 310900Z 3109/0106 00000KT 1/4SM FG VV002
      TEMPO 3109/3113 3SM BR BKN030
     FM311300 14008KT 4SM BR BKN015
     FM311500 16014G21KT P6SM SCT025 BKN100
     FM312200 18009KT P6SM VCTS SCT030CB BKN070
      TEMPO 0102/0106 1SM TSRA BKN015CB=



000
FTUS43 KMPX 310800 AAA
TAFMSP
TAF AMD
KMSP 310858Z 3109/0112 12006KT P6SM FEW050
     FM311200 13009KT P6SM VCSH SCT050 BKN090
     FM311600 16015G22KT P6SM SCT090
     FM312100 17014G22KT P6SM VCTS SCT040CB BKN070
      TEMPO 0101/0104 1SM TSRA BKN020CB OVC050
     FM010400 19008KT P6SM VCSH SCT020 BKN080
     FM010900 25006KT P6SM SCT100=



000
FTUS43 KMPX 310500
TAFSTC
TAF
KSTC 310530Z 3106/0106 14005KT P6SM SCT030 BKN050
     FM311000 14005KT P6SM VCSH SCT050 BKN080
     FM311300 15009KT P6SM SCT050 BKN120
     FM311600 15014G21KT P6SM SCT150
     FM312100 17013G20KT P6SM VCTS SCT030CB BKN070
      TEMPO 3122/0102 2SM TSRA BKN020CB OVC050
     FM010300 22008KT P6SM SCT020 BKN090=



000
FTUS43 KMPX 310500
TAFEAU
TAF
KEAU 310530Z 3106/0106 00000KT 1/4SM FG VV002
     FM311500 14008KT 6SM BR BKN015
     FM311600 16014G21KT P6SM SCT025 BKN100
     FM010100 18009KT P6SM VCTS SCT030CB BKN070
      TEMPO 0102/0106 1SM TSRA BKN015CB=



000
FTUS43 KMPX 310500
TAFMSP
TAF
KMSP 310530Z 3106/0112 12004KT P6SM FEW050
     FM311200 13005KT P6SM VCSH SCT050 BKN090
     FM311600 16015G22KT P6SM SCT090
     FM312300 17014G22KT P6SM VCTS SCT040CB BKN070
      TEMPO 3123/0103 1SM TSRA BKN020CB OVC050
     FM010400 20008KT P6SM SCT020 BKN080
     FM010900 25006KT P6SM SCT100=



000
FTUS43 KMPX 310500
TAFRWF
TAF
KRWF 310530Z 3106/0106 13005KT P6SM FEW200
     FM311000 16010KT P6SM VCSH SCT050 BKN090
     FM311300 16012KT P6SM SCT050 BKN150
     FM311600 16015G24KT P6SM SCT050
     FM312100 19017G24KT P6SM VCTS SCT050CB BKN080
     FM010000 23009KT P6SM SCT070 BKN150=



000
FTUS43 KMPX 310500
TAFAXN
TAF
KAXN 310530Z 3106/0106 15007KT 6SM BR SCT200
     FM311000 15012KT P6SM VCSH FEW020 BKN050
      TEMPO 3110/3113 3SM -TSRA BKN020CB
     FM311300 15014G20KT P6SM SCT050 BKN100
     FM311700 18014G21KT P6SM SCT020 BKN050
     FM312200 24009KT P6SM SCT040 BKN120
     FM010400 29005KT P6SM SCT200=



000
FTUS43 KMPX 310400 AAB
TAFMSP
TAF AMD
KMSP 310447Z 3105/0106 12004KT P6SM FEW040 SCT090
     FM311000 13005KT P6SM BKN200
     FM311700 16015G22KT P6SM SCT040 BKN090
     FM312300 17014G22KT P6SM VCTS SCT040CB BKN070
      TEMPO 3123/0103 4SM TSRA BKN030CB OVC070
     FM010400 20008KT P6SM SCT020 BKN080=



000
FTUS43 KMPX 310400 AAA
TAFEAU
TAF AMD
KEAU 310401Z 3104/3124 00000KT 1/4SM FG VV002
     FM311500 14008KT 6SM BR BKN015
     FM311700 15014KT P6SM SCT025 BKN100=



000
FTUS43 KMPX 310000 AAA
TAFMSP
TAF AMD
KMSP 310020Z 3100/0106 08005KT P6SM BKN035 BKN070
      TEMPO 3100/3102 5SM -SHRA BKN030 BKN070
     FM310300 12004KT P6SM SCT025 BKN050
     FM311000 13005KT P6SM SCT025 BKN200
     FM311700 16015G22KT P6SM SCT040 BKN090
     FM312300 17014G22KT P6SM VCTS SCT040CB BKN070
      TEMPO 3123/0103 4SM TSRA BKN030CB OVC070=



000
FTUS43 KMPX 302300
TAFEAU
TAF
KEAU 302320Z 3100/3124 36004KT P6SM BKN020
     FM310600 VRB02KT 3SM BR SCT015
     FM310800 14002KT 1/4SM FG VV002
     FM311500 14008KT 6SM BR BKN015
     FM311700 15014KT P6SM SCT025 BKN100=



000
FTUS43 KMPX 302300
TAFMSP
TAF
KMSP 302320Z 3100/0106 03004KT P6SM VCSH BKN035 BKN070
     FM310300 12004KT P6SM SCT025 BKN050
     FM311000 13005KT P6SM SCT025 BKN200
     FM311700 16015G22KT P6SM SCT040 BKN090
     FM312300 17014G22KT P6SM VCTS SCT040CB BKN070
      TEMPO 3123/0103 4SM TSRA BKN030CB OVC070=



000
FTUS43 KMPX 302300
TAFRWF
TAF
KRWF 302320Z 3100/3124 28004KT P6SM BKN015
     FM310100 VRB03KT P6SM SCT025
     FM310800 16010KT P6SM SCT015 BKN200
     FM311700 16015G24KT P6SM VCSH SCT050 BKN110
     FM312100 19017G24KT P6SM VCTS SCT050CB BKN080=



000
FTUS43 KMPX 302300
TAFAXN
TAF
KAXN 302320Z 3100/3124 VRB03KT P6SM BKN015 BKN030
     FM310500 13007KT P6SM SCT015
     FM310900 15011KT P6SM FEW005 SCT015 BKN110
     FM311200 15015G22KT P6SM VCSH FEW020 BKN050
     FM311700 18014G21KT P6SM VCTS SCT025CB BKN070 PROB30 3118/3123
      2SM TSRA FEW015 BKN030CB OVC070=



000
FTUS43 KMPX 302300
TAFSTC
TAF
KSTC 302320Z 3100/3124 VRB02KT P6SM VCSH SCT025 BKN050
     FM310500 12005KT 4SM BR FEW002 BKN015
     FM311500 15012G18KT P6SM SCT015 BKN110
     FM312000 17013G21KT P6SM VCTS SCT030CB BKN070
      TEMPO 3120/3124 2SM TSRA BKN030CB OVC070=



000
FTUS43 KMPX 302000 AAA
TAFMSP
TAF AMD
KMSP 302046Z 3021/3124 03005KT P6SM SCT030 BKN080
     FM310000 VRB04KT P6SM SCT025
     FM311200 14008KT P6SM FEW110
     FM311800 16015G22KT P6SM SCT050 BKN090 PROB30 3121/3124 TSRA
      BKN050CB=



000
FTUS43 KMPX 301700
TAFAXN
TAF
KAXN 301720Z 3018/3118 34006KT P6SM SCT008 BKN015 BKN040
     FM302100 VRB02KT P6SM SCT015 BKN025
     FM302230 12004KT P6SM SCT015 SCT040
     FM310900 15012KT P6SM FEW002 SCT015 BKN110
     FM311500 15015G22KT P6SM VCSH FEW020 BKN050=



000
FTUS43 KMPX 301700
TAFEAU
TAF
KEAU 301720Z 3018/3118 34008KT P6SM SCT015 BKN025 BKN040
     FM302300 34006KT P6SM SCT025 BKN035
     FM310600 VRB02KT 3SM BR SKC
     FM310800 14002KT 1/4SM FG VV002
     FM311400 14007KT 6SM BR FEW012=



000
FTUS43 KMPX 301700
TAFMSP
TAF
KMSP 301720Z 3018/3124 34009KT P6SM BKN025 BKN050
     FM302000 33007KT P6SM VCSH SCT025 BKN035
     FM310000 VRB04KT P6SM SCT025
     FM311200 14008KT P6SM FEW110
     FM311800 16015G22KT P6SM SCT050 BKN090 PROB30 3121/3124 TSRA
      BKN050CB=



000
FTUS43 KMPX 301700
TAFRWF
TAF
KRWF 301720Z 3018/3118 30007KT P6SM BKN006 OVC012
     FM301900 30006KT P6SM BKN012 BKN020
     FM302100 31006KT P6SM SCT015 BKN025
     FM310000 VRB02KT 6SM BR SCT025
     FM310800 16010KT 3SM BR SCT002 BKN200
     FM311500 16014G22KT P6SM VCSH SCT050 BKN110=



000
FTUS43 KMPX 301700
TAFSTC
TAF
KSTC 301720Z 3018/3118 05004KT P6SM VCSH BKN025 BKN050
     FM302100 VRB03KT P6SM VCSH SCT025 BKN035
     FM310000 VRB02KT P6SM BKN020
     FM310300 12006KT 3SM BR FEW002 BKN015
     FM311500 15012G18KT P6SM SCT015 BKN110=



000
FTUS43 KMPX 301500 AAA
TAFSTC
TAF AMD
KSTC 301507Z 3015/3112 36005KT P6SM VCSH BKN015 BKN025 OVC035
     FM301700 35005KT P6SM VCSH SCT015 BKN025 BKN050
     FM302000 VRB03KT P6SM FEW020 BKN040
     FM310000 VRB03KT P6SM FEW250
     FM310800 12004KT 3SM BR SCT200=



000
FTUS43 KMPX 301500 AAA
TAFRWF
TAF AMD
KRWF 301504Z 3015/3112 32009KT 5SM BR BKN004 OVC008
     FM301730 32008KT P6SM SCT008 BKN012 OVC020
     FM301900 32007KT P6SM SCT012 BKN020
     FM302100 31006KT P6SM FEW020 BKN050
     FM310000 15003KT P6SM FEW250
     FM310800 16009KT P6SM BKN200=



000
FTUS43 KMPX 301400 AAB
TAFMSP
TAF AMD
KMSP 301447Z 3015/3118 36010G16KT P6SM FEW015 BKN020 BKN080
     FM302000 33007KT P6SM VCSH SCT025 BKN035
     FM310000 02005KT P6SM SCT035
     FM310300 14003KT P6SM FEW250
     FM311500 14010KT P6SM SCT080 BKN150=



000
FTUS43 KMPX 301300 AAA
TAFMSP
TAF AMD
KMSP 301322Z 3013/3118 34006KT P6SM FEW012 SCT025 BKN080
     FM301600 34006KT P6SM BKN025 BKN050
     FM302000 VRB03KT P6SM VCSH SCT025 BKN050
     FM310300 14003KT P6SM FEW250
     FM311500 14010KT P6SM SCT080 BKN150=



000
FTUS43 KMPX 301100
TAFSTC
TAF
KSTC 301138Z 3012/3112 03003KT P6SM VCSH BKN035 OVC050
      TEMPO 3012/3014 4SM BR BKN003
     FM301600 35005KT P6SM SCT012 OVC020
     FM302000 VRB03KT P6SM FEW020 BKN040
     FM310000 VRB03KT P6SM FEW250
     FM310800 12004KT 3SM BR SCT200=



000
FTUS43 KMPX 301100
TAFMSP
TAF
KMSP 301138Z 3012/3118 35004KT P6SM VCSH SCT012 BKN020
      TEMPO 3012/3014 BKN012
     FM301800 34005KT P6SM BKN025 OVC040
     FM302000 VRB03KT P6SM SCT025 BKN050
     FM310300 14003KT P6SM FEW250
     FM311500 14010KT P6SM SCT080 BKN150=



000
FTUS43 KMPX 301100
TAFRWF
TAF
KRWF 301138Z 3012/3112 32009KT 3SM BR OVC003
     FM301600 32005KT P6SM BKN010 OVC020
     FM301800 32004KT P6SM BKN020 OVC040
     FM302100 VRB03KT P6SM FEW020 BKN050
     FM310000 15003KT P6SM FEW250
     FM310800 16009KT P6SM BKN200=



000
FTUS43 KMPX 301100
TAFEAU
TAF
KEAU 301138Z 3012/3112 00000KT 5SM -SHRA BR OVC015
     FM301400 35005KT P6SM BKN010 OVC020
     FM301900 34005KT P6SM BKN020 OVC040
     FM302100 VRB03KT P6SM SCT025 BKN050
     FM310600 VRB02KT 3SM BR SKC
     FM310800 14002KT 1/4SM FG VV002=



000
FTUS43 KMPX 301100
TAFAXN
TAF
KAXN 301138Z 3012/3112 35007KT P6SM SCT004 OVC007
     FM301600 36006KT P6SM BKN010 OVC020
     FM302100 VRB03KT P6SM SCT020 BKN040
     FM310000 14006KT P6SM FEW250
     FM310900 15012KT P6SM BKN150=



000
FTUS43 KMPX 300800 AAA
TAFRWF
TAF AMD
KRWF 300854Z 3009/3106 30003KT P6SM FEW006 SCT015 OVC025
     FM301000 32005KT 3SM BR OVC005
     FM301600 32005KT P6SM BKN010 OVC020
     FM301800 32004KT P6SM BKN020 OVC040
     FM302100 VRB03KT P6SM FEW020 BKN050
     FM310000 16004KT P6SM FEW250=



000
FTUS43 KMPX 300800 AAB
TAFAXN
TAF AMD
KAXN 300849Z 3009/3106 35007KT P6SM SCT004 BKN008 OVC012
      TEMPO 3010/3014 4SM BR BKN004
     FM301600 36006KT P6SM BKN010 OVC020
     FM301800 36004KT P6SM BKN020 OVC030
     FM302100 VRB03KT P6SM FEW020 BKN040
     FM310000 14006KT P6SM FEW250=



000
FTUS43 KMPX 300800 AAA
TAFMSP
TAF AMD
KMSP 300847Z 3009/3112 35004KT 6SM BR BKN008 OVC012
     FM301500 34005KT P6SM SCT012 OVC020
     FM301800 34005KT P6SM BKN025 OVC040
     FM302000 VRB03KT P6SM SCT025 BKN050
     FM310300 14003KT P6SM FEW250=



000
FTUS43 KMPX 300800 AAA
TAFEAU
TAF AMD
KEAU 300823Z 3008/3106 VRB03KT 6SM -SHRA BR OVC007
     FM301100 00000KT 3SM BR OVC004
     FM301600 35005KT P6SM BKN010 OVC020
     FM301900 34005KT P6SM BKN025
     FM302100 VRB03KT P6SM SCT025=



000
FTUS43 KMPX 300700 AAA
TAFSTC
TAF AMD
KSTC 300716Z 3007/3106 32003KT 4SM BR SCT008 BKN025
      TEMPO 3007/3008 6SM BR OVC040
     FM301000 34004KT 4SM BR OVC008
     FM301600 35005KT P6SM BKN010 OVC030
     FM301700 VRB03KT P6SM BKN020 OVC040
     FM302000 VRB03KT P6SM FEW020 BKN040
     FM310000 VRB03KT P6SM FEW250=



000
FTUS43 KMPX 300700 AAA
TAFAXN
TAF AMD
KAXN 300713Z 3007/3106 34005KT P6SM SCT025 OVC035
     FM300800 35007KT 6SM BR OVC008
     FM301000 35007KT 6SM BR OVC003
      TEMPO 3010/3014 4SM BR
     FM301600 36006KT P6SM BKN010 OVC020
     FM301800 36004KT P6SM BKN020 OVC030
     FM302100 VRB03KT P6SM FEW020 BKN040
     FM310000 14006KT P6SM FEW250=



000
FTUS43 KMPX 300500
TAFRWF
TAF
KRWF 300520Z 3006/3106 27003KT P6SM FEW006 SCT015 OVC035
      TEMPO 3006/3009 BKN020
     FM300900 32005KT 3SM BR OVC006
     FM301600 32005KT P6SM BKN010
     FM301800 32004KT P6SM BKN020
     FM302100 VRB03KT P6SM FEW020=



000
FTUS43 KMPX 300500
TAFMSP
TAF
KMSP 300520Z 3006/3112 36004KT 6SM -SHRA BR OVC006
      TEMPO 3006/3009 SCT006 BKN025
     FM300900 35004KT 5SM BR OVC004
     FM301500 34005KT P6SM BKN010 OVC020
     FM301800 34005KT P6SM BKN025
     FM302200 VRB03KT P6SM SCT025=



000
FTUS43 KMPX 300500
TAFAXN
TAF
KAXN 300520Z 3006/3106 34005KT P6SM SCT025 OVC035
     FM300800 35007KT 6SM BR SCT005 OVC015
     FM301000 35007KT 6SM BR OVC005
      TEMPO 3010/3014 4SM BR
     FM301600 36006KT P6SM BKN010
     FM301800 36004KT P6SM BKN020
     FM302100 VRB03KT P6SM FEW020=



000
FTUS43 KMPX 300500
TAFEAU
TAF
KEAU 300520Z 3006/3106 VRB03KT 6SM -SHRA SCT025 BKN050
      TEMPO 3007/3010 BKN020
     FM301000 00000KT 5SM BR VCSH OVC007
     FM301200 00000KT 3SM BR OVC004
     FM301600 35005KT P6SM BKN010 OVC020
     FM301900 34005KT P6SM BKN025
     FM302100 VRB03KT P6SM SCT025=



000
FTUS43 KMPX 300500
TAFSTC
TAF
KSTC 300520Z 3006/3106 32003KT 4SM BR SCT005 BKN025
      TEMPO 3006/3008 6SM BR OVC040
     FM300800 34004KT 3SM BR OVC005
     FM301600 35005KT P6SM BKN010
     FM301700 VRB03KT P6SM BKN020
     FM302000 VRB03KT P6SM FEW020=



000
FTUS43 KMPX 300300 AAA
TAFMSP
TAF AMD
KMSP 300306Z 3003/3106 33005KT 6SM -SHRA SCT020 OVC045
      TEMPO 3003/3007 SCT005 OVC009
     FM300700 33004KT P6SM SCT004 OVC009
     FM300900 35005KT 4SM BR OVC003
     FM301500 34006KT P6SM BKN010 OVC020
     FM301700 34006KT P6SM BKN025
     FM302100 34005KT P6SM SCT025=



000
FTUS43 KMPX 292300
TAFEAU
TAF
KEAU 292327Z 3000/3024 VRB03KT 6SM -SHRA VCTS SCT025 BKN050CB
     FM300800 00000KT 2SM BR OVC007
     FM300900 00000KT 1/4SM FG VV002
     FM301400 35003KT 3SM BR OVC004
     FM301600 34005KT P6SM BKN010 OVC020
     FM301800 34005KT P6SM BKN025
     FM302100 35005KT P6SM SCT025=



000
FTUS43 KMPX 292300
TAFAXN
TAF
KAXN 292327Z 3000/3024 32005KT P6SM SCT025 OVC035
     FM300700 35007KT 6SM BR SCT005 OVC015
     FM300900 35007KT 2SM BR OVC004
     FM301500 02006KT 6SM BR BKN010
     FM301700 02005KT P6SM BKN020
     FM302100 VRB03KT P6SM SCT020=



000
FTUS43 KMPX 292300
TAFMSP
TAF
KMSP 292327Z 3000/3106 33005KT 6SM -SHRA SCT020 OVC045
     FM300500 32003KT P6SM SCT015 BKN090
     FM300700 33004KT P6SM SCT004 OVC012
     FM300900 35005KT 4SM BR OVC003
     FM301500 34006KT P6SM BKN010 OVC020
     FM301700 34006KT P6SM BKN025
     FM302100 34005KT P6SM SCT025=



000
FTUS43 KMPX 292300
TAFRWF
TAF
KRWF 292327Z 3000/3024 27003KT 6SM BR VCSH FEW006 SCT015 OVC035
      TEMPO 3000/3002 4SM -RA BR
     FM300800 31005KT 1SM BR OVC003
     FM301500 32005KT 6SM BR BKN010
     FM301700 32004KT P6SM BKN020
     FM302100 VRB03KT P6SM SCT020=



000
FTUS43 KMPX 292300
TAFSTC
TAF
KSTC 292327Z 3000/3024 00000KT P6SM SCT025 OVC040
      TEMPO 3000/3002 BKN025
     FM300500 32003KT 4SM BR SCT005 BKN025
     FM300800 34004KT 1SM BR OVC004
     FM301500 35005KT 6SM BR BKN010
     FM301700 34004KT P6SM BKN020
     FM302100 VRB03KT P6SM SCT020=



000
FTUS43 KMPX 292200 AAB
TAFMSP
TAF AMD
KMSP 292232Z 2923/3024 31010KT P6SM -SHRA VCTS SCT020CB BKN040
      OVC090
      TEMPO 2923/3001 2SM +TSRA BKN020CB
     FM300100 32004KT 6SM -SHRA BKN025
     FM300300 32004KT P6SM SCT020 BKN090
     FM300600 35005KT P6SM SCT006 OVC012
     FM300900 35005KT 6SM BR OVC005
     FM301500 36006KT P6SM BKN010 OVC020
     FM301800 36008KT P6SM SCT025=



000
FTUS43 KMPX 292000 AAA
TAFMSP
TAF AMD
KMSP 292049Z 2921/3024 VRB04KT P6SM -SHRA VCTS SCT020CB BKN040
      OVC090
      TEMPO 2922/3001 2SM +TSRA BKN020CB
     FM300100 24004KT 6SM -SHRA BKN025
     FM300300 32004KT P6SM SCT020 BKN090
     FM300600 35005KT P6SM SCT006 OVC012
     FM300900 35005KT 6SM BR OVC005
     FM301500 36006KT P6SM BKN010 OVC020
     FM301800 36008KT P6SM SCT025=



000
FTUS43 KMPX 291900 AAA
TAFEAU
TAF AMD
KEAU 291959Z 2920/3018 20009KT P6SM SCT020 BKN050
     FM292100 21008KT P6SM -SHRA VCTS SCT025 BKN050CB
      TEMPO 2921/3001 1SM +TSRA BKN025CB
     FM300600 VRB02KT P6SM SCT009 OVC020
     FM300800 33004KT 2SM BR OVC004
     FM301500 35006KT 6SM BR SCT006 OVC012=



    US Dept of Commerce
    National Oceanic and Atmospheric Administration
    National Weather Service
    1325 East West Highway
    Silver Spring, MD 20910
    Page Author: NWS Internet Services Team
Disclaimer
Information Quality
Credits
Glossary
Privacy Policy
Freedom of Information Act (FOIA)
About Us
Career Opportunities